createdAt,value
2016-04-24T00:00:06.125Z,99.71
2016-04-24T00:00:16.109Z,99.9
2016-04-24T00:00:26.125Z,99.9
2016-04-24T00:00:36.127Z,99.9
2016-04-24T00:00:46.127Z,99.9
2016-04-24T00:00:56.127Z,99.81
2016-04-24T00:01:06.142Z,99.71
2016-04-24T00:01:16.158Z,99.71
2016-04-24T00:01:26.142Z,99.81
2016-04-24T00:01:36.145Z,99.52
2016-04-24T00:01:46.145Z,99.43
2016-04-24T00:01:56.161Z,99.62
2016-04-24T00:02:06.161Z,99.62
2016-04-24T00:02:16.161Z,99.62
2016-04-24T00:02:26.176Z,99.43
2016-04-24T00:02:36.179Z,99.81
2016-04-24T00:02:46.179Z,99.9
2016-04-24T00:02:56.179Z,99.81
2016-04-24T00:03:06.195Z,99.62
2016-04-24T00:03:16.195Z,99.62
2016-04-24T00:03:26.195Z,99.62
2016-04-24T00:03:36.197Z,99.52
2016-04-24T00:03:46.213Z,99.62
2016-04-24T00:03:56.228Z,99.43
2016-04-24T00:04:06.213Z,99.15
2016-04-24T00:04:16.213Z,98.96
2016-04-24T00:04:26.228Z,99.15
2016-04-24T00:04:36.231Z,99.15
2016-04-24T00:04:46.231Z,99.15
2016-04-24T00:04:56.231Z,99.33
2016-04-24T00:05:06.231Z,99.43
2016-04-24T00:05:16.247Z,99.24
2016-04-24T00:05:26.247Z,99.24
2016-04-24T00:05:36.250Z,99.24
2016-04-24T00:05:46.250Z,99.52
2016-04-24T00:05:56.266Z,99.33
2016-04-24T00:06:06.266Z,98.96
2016-04-24T00:06:16.266Z,98.86
2016-04-24T00:06:26.266Z,98.86
2016-04-24T00:06:36.283Z,99.05
2016-04-24T00:06:46.439Z,99.15
2016-04-24T00:06:56.361Z,99.15
2016-04-24T00:07:06.283Z,99.05
2016-04-24T00:07:17.205Z,99.24
2016-04-24T00:07:26.299Z,99.05
2016-04-24T00:07:36.303Z,98.86
2016-04-24T00:07:46.303Z,99.05
2016-04-24T00:07:56.318Z,99.05
2016-04-24T00:08:06.318Z,99.05
2016-04-24T00:08:16.318Z,99.15
2016-04-24T00:08:26.318Z,99.05
2016-04-24T00:08:36.336Z,99.05
2016-04-24T00:08:46.336Z,98.96
2016-04-24T00:08:56.336Z,98.77
2016-04-24T00:09:06.336Z,98.68
2016-04-24T00:09:16.352Z,99.05
2016-04-24T00:09:26.352Z,99.05
2016-04-24T00:09:36.354Z,99.05
2016-04-24T00:09:46.354Z,98.96
2016-04-24T00:09:56.369Z,99.15
2016-04-24T00:10:06.369Z,99.15
2016-04-24T00:10:16.369Z,98.49
2016-04-24T00:10:26.369Z,98.77
2016-04-24T00:10:36.389Z,98.86
2016-04-24T00:10:46.389Z,98.58
2016-04-24T00:10:56.389Z,98.49
2016-04-24T00:11:06.389Z,98.58
2016-04-24T00:11:16.405Z,98.68
2016-04-24T00:11:26.405Z,98.49
2016-04-24T00:11:36.407Z,98.58
2016-04-24T00:11:46.407Z,98.39
2016-04-24T00:11:56.422Z,98.49
2016-04-24T00:12:06.422Z,98.58
2016-04-24T00:12:16.422Z,98.3
2016-04-24T00:12:26.422Z,98.49
2016-04-24T00:12:36.440Z,98.58
2016-04-24T00:12:46.440Z,98.58
2016-04-24T00:12:56.440Z,98.77
2016-04-24T00:13:06.440Z,98.68
2016-04-24T00:13:16.455Z,98.2
2016-04-24T00:13:26.455Z,98.49
2016-04-24T00:13:36.459Z,98.49
2016-04-24T00:13:46.459Z,98.49
2016-04-24T00:13:56.475Z,98.49
2016-04-24T00:14:06.475Z,98.39
2016-04-24T00:14:16.475Z,98.39
2016-04-24T00:14:26.475Z,98.49
2016-04-24T00:14:36.493Z,98.39
2016-04-24T00:14:46.493Z,98.3
2016-04-24T00:14:56.493Z,98.39
2016-04-24T00:15:06.493Z,98.3
2016-04-24T00:15:16.508Z,98.39
2016-04-24T00:15:26.508Z,98.39
2016-04-24T00:15:36.511Z,98.39
2016-04-24T00:15:46.511Z,98.3
2016-04-24T00:15:56.527Z,98.3
2016-04-24T00:16:06.527Z,98.2
2016-04-24T00:16:16.527Z,98.3
2016-04-24T00:16:26.527Z,98.2
2016-04-24T00:16:36.545Z,98.2
2016-04-24T00:16:46.545Z,98.2
2016-04-24T00:16:56.545Z,98.39
2016-04-24T00:17:06.545Z,98.39
2016-04-24T00:17:16.560Z,98.2
2016-04-24T00:17:26.560Z,98.2
2016-04-24T00:17:36.563Z,98.2
2016-04-24T00:17:46.563Z,98.11
2016-04-24T00:17:56.579Z,98.2
2016-04-24T00:18:06.579Z,98.39
2016-04-24T00:18:16.579Z,98.2
2016-04-24T00:18:26.579Z,98.3
2016-04-24T00:18:36.597Z,98.39
2016-04-24T00:18:46.597Z,98.2
2016-04-24T00:18:56.597Z,98.39
2016-04-24T00:19:06.597Z,98.3
2016-04-24T00:19:16.613Z,98.2
2016-04-24T00:19:26.613Z,98.39
2016-04-24T00:19:36.615Z,98.11
2016-04-24T00:19:46.615Z,98.2
2016-04-24T00:19:56.631Z,98.3
2016-04-24T00:20:07.724Z,98.2
2016-04-24T00:20:17.709Z,98.2
2016-04-24T00:20:27.709Z,98.2
2016-04-24T00:20:37.712Z,98.2
2016-04-24T00:20:47.727Z,98.49
2016-04-24T00:20:57.727Z,98.39
2016-04-24T00:21:07.727Z,98.2
2016-04-24T00:21:17.727Z,98.3
2016-04-24T00:21:27.743Z,98.2
2016-04-24T00:21:37.746Z,98.2
2016-04-24T00:21:47.746Z,98.3
2016-04-24T00:21:57.746Z,98.2
2016-04-24T00:22:07.746Z,98.2
2016-04-24T00:22:17.762Z,98.58
2016-04-24T00:22:27.762Z,98.39
2016-04-24T00:22:37.779Z,98.39
2016-04-24T00:22:47.779Z,98.11
2016-04-24T00:22:57.779Z,98.49
2016-04-24T00:23:07.779Z,98.49
2016-04-24T00:23:17.779Z,98.49
2016-04-24T00:23:27.795Z,98.3
2016-04-24T00:23:37.799Z,98.3
2016-04-24T00:23:47.799Z,98.49
2016-04-24T00:23:57.799Z,98.77
2016-04-24T00:24:07.815Z,98.49
2016-04-24T00:24:17.815Z,98.68
2016-04-24T00:24:27.815Z,98.3
2016-04-24T00:24:37.832Z,98.49
2016-04-24T00:24:47.817Z,98.49
2016-04-24T00:24:57.832Z,98.3
2016-04-24T00:25:07.832Z,97.63
2016-04-24T00:25:17.832Z,98.01
2016-04-24T00:25:27.848Z,98.01
2016-04-24T00:25:37.850Z,98.2
2016-04-24T00:25:47.850Z,97.82
2016-04-24T00:25:57.850Z,98.3
2016-04-24T00:26:07.865Z,98.01
2016-04-24T00:26:17.865Z,98.3
2016-04-24T00:26:27.881Z,98.2
2016-04-24T00:26:37.869Z,97.82
2016-04-24T00:26:47.869Z,98.2
2016-04-24T00:26:57.885Z,97.97
2016-04-24T00:27:07.885Z,98.11
2016-04-24T00:27:17.885Z,98.2
2016-04-24T00:27:27.885Z,98.3
2016-04-24T00:27:37.903Z,98.3
2016-04-24T00:27:47.903Z,98.3
2016-04-24T00:27:57.903Z,98.11
2016-04-24T00:28:07.918Z,98.2
2016-04-24T00:28:17.918Z,98.39
2016-04-24T00:28:27.934Z,98.11
2016-04-24T00:28:37.920Z,98.25
2016-04-24T00:28:47.936Z,98.11
2016-04-24T00:28:57.936Z,98.16
2016-04-24T00:29:07.936Z,98.3
2016-04-24T00:29:17.936Z,98.2
2016-04-24T00:29:27.936Z,98.39
2016-04-24T00:29:37.956Z,98.2
2016-04-24T00:29:47.956Z,98.11
2016-04-24T00:29:57.956Z,98.11
2016-04-24T00:30:07.971Z,98.11
2016-04-24T00:30:17.971Z,98.2
2016-04-24T00:30:27.971Z,98.3
2016-04-24T00:30:37.973Z,98.3
2016-04-24T00:30:47.989Z,98.3
2016-04-24T00:30:57.989Z,98.39
2016-04-24T00:31:07.989Z,98.3
2016-04-24T00:31:17.989Z,98.3
2016-04-24T00:31:28.551Z,98.44
2016-04-24T00:31:38.007Z,98.39
2016-04-24T00:31:48.023Z,98.3
2016-04-24T00:31:58.007Z,98.2
2016-04-24T00:32:08.023Z,98.11
2016-04-24T00:32:18.023Z,98.11
2016-04-24T00:32:28.023Z,98.35
2016-04-24T00:32:38.025Z,98.58
2016-04-24T00:32:48.041Z,98.54
2016-04-24T00:32:58.041Z,97.87
2016-04-24T00:33:08.041Z,97.92
2016-04-24T00:33:18.041Z,97.97
2016-04-24T00:33:28.056Z,97.54
2016-04-24T00:33:38.059Z,97.92
2016-04-24T00:33:48.059Z,97.82
2016-04-24T00:33:58.059Z,97.73
2016-04-24T00:34:08.075Z,97.97
2016-04-24T00:34:18.075Z,97.82
2016-04-24T00:34:28.075Z,97.82
2016-04-24T00:34:38.094Z,97.82
2016-04-24T00:34:48.078Z,97.82
2016-04-24T00:34:58.094Z,97.87
2016-04-24T00:35:08.094Z,97.73
2016-04-24T00:35:18.094Z,97.82
2016-04-24T00:35:28.109Z,97.97
2016-04-24T00:35:38.111Z,97.82
2016-04-24T00:35:48.111Z,97.63
2016-04-24T00:35:58.111Z,97.73
2016-04-24T00:36:08.111Z,97.73
2016-04-24T00:36:18.127Z,97.73
2016-04-24T00:36:28.127Z,97.4
2016-04-24T00:36:38.130Z,97.35
2016-04-24T00:36:48.145Z,97.4
2016-04-24T00:36:58.145Z,97.3
2016-04-24T00:37:08.145Z,97.68
2016-04-24T00:37:18.145Z,97.68
2016-04-24T00:37:28.755Z,97.3
2016-04-24T00:37:38.273Z,97.21
2016-04-24T00:37:48.164Z,97.49
2016-04-24T00:37:58.180Z,97.59
2016-04-24T00:38:08.180Z,97.78
2016-04-24T00:38:18.180Z,97.68
2016-04-24T00:38:28.180Z,97.68
2016-04-24T00:38:38.197Z,97.59
2016-04-24T00:38:48.197Z,97.54
2016-04-24T00:38:58.197Z,97.59
2016-04-24T00:39:08.197Z,97.59
2016-04-24T00:39:18.197Z,97.49
2016-04-24T00:39:28.213Z,97.59
2016-04-24T00:39:38.217Z,97.68
2016-04-24T00:39:48.217Z,97.68
2016-04-24T00:39:58.217Z,97.49
2016-04-24T00:40:08.233Z,97.49
2016-04-24T00:40:18.233Z,97.68
2016-04-24T00:40:28.233Z,97.21
2016-04-24T00:40:38.235Z,97.49
2016-04-24T00:40:48.250Z,97.87
2016-04-24T00:40:58.547Z,97.97
2016-04-24T00:41:08.250Z,97.87
2016-04-24T00:41:18.266Z,97.59
2016-04-24T00:41:28.266Z,97.68
2016-04-24T00:41:38.268Z,97.68
2016-04-24T00:41:48.268Z,97.68
2016-04-24T00:41:58.283Z,97.68
2016-04-24T00:42:08.283Z,97.59
2016-04-24T00:42:18.283Z,97.59
2016-04-24T00:42:28.283Z,97.78
2016-04-24T00:42:38.287Z,97.49
2016-04-24T00:42:48.303Z,97.68
2016-04-24T00:42:58.303Z,97.44
2016-04-24T00:43:08.303Z,97.78
2016-04-24T00:43:18.303Z,97.97
2016-04-24T00:43:28.319Z,97.97
2016-04-24T00:43:38.321Z,97.97
2016-04-24T00:43:48.321Z,97.4
2016-04-24T00:43:58.321Z,97.78
2016-04-24T00:44:08.336Z,98.06
2016-04-24T00:44:18.336Z,97.78
2016-04-24T00:44:28.336Z,97.59
2016-04-24T00:44:38.338Z,97.97
2016-04-24T00:44:48.354Z,98.16
2016-04-24T00:44:58.354Z,97.87
2016-04-24T00:45:08.354Z,97.87
2016-04-24T00:45:18.354Z,97.97
2016-04-24T00:45:28.370Z,97.97
2016-04-24T00:45:38.374Z,98.06
2016-04-24T00:45:48.374Z,97.87
2016-04-24T00:45:58.389Z,97.97
2016-04-24T00:46:08.389Z,97.87
2016-04-24T00:46:18.389Z,97.87
2016-04-24T00:46:31.094Z,97.87
2016-04-24T00:46:41.079Z,97.87
2016-04-24T00:46:51.079Z,97.87
2016-04-24T00:47:01.079Z,97.87
2016-04-24T00:47:11.079Z,97.87
2016-04-24T00:47:21.094Z,97.97
2016-04-24T00:47:31.097Z,98.06
2016-04-24T00:47:41.097Z,97.97
2016-04-24T00:47:51.097Z,97.87
2016-04-24T00:48:01.113Z,97.97
2016-04-24T00:48:11.113Z,98.16
2016-04-24T00:48:21.129Z,98.06
2016-04-24T00:48:31.115Z,98.16
2016-04-24T00:48:41.131Z,98.06
2016-04-24T00:48:51.131Z,98.06
2016-04-24T00:49:01.131Z,98.06
2016-04-24T00:49:11.131Z,97.87
2016-04-24T00:49:21.146Z,97.97
2016-04-24T00:49:31.149Z,97.97
2016-04-24T00:49:41.149Z,97.87
2016-04-24T00:49:51.149Z,97.97
2016-04-24T00:50:01.165Z,97.87
2016-04-24T00:50:11.165Z,97.78
2016-04-24T00:50:21.165Z,97.78
2016-04-24T00:50:31.183Z,97.49
2016-04-24T00:50:41.183Z,97.78
2016-04-24T00:50:51.183Z,97.68
2016-04-24T00:51:01.183Z,97.59
2016-04-24T00:51:11.215Z,97.59
2016-04-24T00:51:21.199Z,97.49
2016-04-24T00:51:31.201Z,97.59
2016-04-24T00:51:41.201Z,97.59
2016-04-24T00:51:51.201Z,97.4
2016-04-24T00:52:01.217Z,97.4
2016-04-24T00:52:11.217Z,97.68
2016-04-24T00:52:21.217Z,97.49
2016-04-24T00:52:31.220Z,97.02
2016-04-24T00:52:41.235Z,97.49
2016-04-24T00:52:51.235Z,97.4
2016-04-24T00:53:01.235Z,97.68
2016-04-24T00:53:11.235Z,97.4
2016-04-24T00:53:21.251Z,97.21
2016-04-24T00:53:31.254Z,97.4
2016-04-24T00:53:41.254Z,97.21
2016-04-24T00:53:51.254Z,97.21
2016-04-24T00:54:01.270Z,97.21
2016-04-24T00:54:11.270Z,97.21
2016-04-24T00:54:21.270Z,97.21
2016-04-24T00:54:31.272Z,97.3
2016-04-24T00:54:41.287Z,97.21
2016-04-24T00:54:51.287Z,97.21
2016-04-24T00:55:01.287Z,97.3
2016-04-24T00:55:11.303Z,97.3
2016-04-24T00:55:21.303Z,97.49
2016-04-24T00:55:31.307Z,97.3
2016-04-24T00:55:41.307Z,97.4
2016-04-24T00:55:51.307Z,97.21
2016-04-24T00:56:01.322Z,97.3
2016-04-24T00:56:11.338Z,97.3
2016-04-24T00:56:21.979Z,97.3
2016-04-24T00:56:31.324Z,97.3
2016-04-24T00:56:41.340Z,97.4
2016-04-24T00:56:51.340Z,97.3
2016-04-24T00:57:01.340Z,97.4
2016-04-24T00:57:11.356Z,97.02
2016-04-24T00:57:21.356Z,97.4
2016-04-24T00:57:31.358Z,97.4
2016-04-24T00:57:41.373Z,97.3
2016-04-24T00:57:51.358Z,97.4
2016-04-24T00:58:01.373Z,97.4
2016-04-24T00:58:11.373Z,97.4
2016-04-24T00:58:21.373Z,97.3
2016-04-24T00:58:31.377Z,97.11
2016-04-24T00:58:41.393Z,97.3
2016-04-24T00:58:51.393Z,97.21
2016-04-24T00:59:01.393Z,97.49
2016-04-24T00:59:11.409Z,97.4
2016-04-24T00:59:21.409Z,97.59
2016-04-24T00:59:31.411Z,97.49
2016-04-24T00:59:41.426Z,97.49
2016-04-24T00:59:51.426Z,97.4
2016-04-24T01:00:01.426Z,97.49
2016-04-24T01:00:11.426Z,97.59
2016-04-24T01:00:21.426Z,97.49
2016-04-24T01:00:31.444Z,97.3
2016-04-24T01:00:41.444Z,97.68
2016-04-24T01:00:51.444Z,97.68
2016-04-24T01:01:01.444Z,97.3
2016-04-24T01:01:11.459Z,97.02
2016-04-24T01:01:23.147Z,96.83
2016-04-24T01:01:31.463Z,96.83
2016-04-24T01:01:41.463Z,96.83
2016-04-24T01:01:51.479Z,96.73
2016-04-24T01:02:01.479Z,97.02
2016-04-24T01:02:11.479Z,97.3
2016-04-24T01:02:21.495Z,97.11
2016-04-24T01:02:31.512Z,97.21
2016-04-24T01:02:41.497Z,97.21
2016-04-24T01:02:51.497Z,97.11
2016-04-24T01:03:01.653Z,97.21
2016-04-24T01:03:11.700Z,97.11
2016-04-24T01:03:21.512Z,97.21
2016-04-24T01:03:32.015Z,97.02
2016-04-24T01:03:41.515Z,97.11
2016-04-24T01:03:51.531Z,97.21
2016-04-24T01:04:01.531Z,97.02
2016-04-24T01:04:11.531Z,97.11
2016-04-24T01:04:21.531Z,97.02
2016-04-24T01:04:31.550Z,97.21
2016-04-24T01:04:50.675Z,97.11
2016-04-24T01:05:00.643Z,97.21
2016-04-24T01:05:10.659Z,96.45
2016-04-24T01:05:20.909Z,96.92
2016-04-24T01:05:30.659Z,97.4
2016-04-24T01:05:40.677Z,97.02
2016-04-24T01:05:50.677Z,97.02
2016-04-24T01:06:00.677Z,96.73
2016-04-24T01:06:10.677Z,97.02
2016-04-24T01:06:20.677Z,96.92
2016-04-24T01:06:30.989Z,97.11
2016-04-24T01:06:40.742Z,97.02
2016-04-24T01:06:50.742Z,97.02
2016-04-24T01:07:00.711Z,97.02
2016-04-24T01:07:10.711Z,96.92
2016-04-24T01:07:20.851Z,97.02
2016-04-24T01:07:31.195Z,97.3
2016-04-24T01:07:40.713Z,96.92
2016-04-24T01:07:50.807Z,96.64
2016-04-24T01:08:00.728Z,96.73
2016-04-24T01:08:10.728Z,97.21
2016-04-24T01:08:20.728Z,96.92
2016-04-24T01:08:30.744Z,96.83
2016-04-24T01:08:40.747Z,96.83
2016-04-24T01:08:50.747Z,96.83
2016-04-24T01:09:00.747Z,96.83
2016-04-24T01:09:10.763Z,96.92
2016-04-24T01:09:20.919Z,97.02
2016-04-24T01:09:30.763Z,97.11
2016-04-24T01:09:40.766Z,96.92
2016-04-24T01:09:50.781Z,96.83
2016-04-24T01:10:00.781Z,97.02
2016-04-24T01:10:10.781Z,97.02
2016-04-24T01:10:20.781Z,97.11
2016-04-24T01:10:30.797Z,96.92
2016-04-24T01:10:40.799Z,97.02
2016-04-24T01:10:50.799Z,97.02
2016-04-24T01:11:00.799Z,97.11
2016-04-24T01:11:10.815Z,97.21
2016-04-24T01:11:23.580Z,97.02
2016-04-24T01:11:32.069Z,97.11
2016-04-24T01:11:42.053Z,97.21
2016-04-24T01:11:52.287Z,96.92
2016-04-24T01:12:02.069Z,96.92
2016-04-24T01:12:12.287Z,97.02
2016-04-24T01:12:22.069Z,97.11
2016-04-24T01:12:32.071Z,97.21
2016-04-24T01:12:42.071Z,97.3
2016-04-24T01:12:52.071Z,97.49
2016-04-24T01:13:02.086Z,97.59
2016-04-24T01:13:12.086Z,97.4
2016-04-24T01:13:22.086Z,97.49
2016-04-24T01:13:32.104Z,97.21
2016-04-24T01:13:42.104Z,97.3
2016-04-24T01:13:52.104Z,97.3
2016-04-24T01:14:02.104Z,97.21
2016-04-24T01:14:12.119Z,97.4
2016-04-24T01:14:22.119Z,97.4
2016-04-24T01:14:32.123Z,97.4
2016-04-24T01:14:42.186Z,97.4
2016-04-24T01:14:52.139Z,97.3
2016-04-24T01:15:02.139Z,97.3
2016-04-24T01:15:12.139Z,97.21
2016-04-24T01:15:22.139Z,97.21
2016-04-24T01:15:32.157Z,97.4
2016-04-24T01:15:42.157Z,97.49
2016-04-24T01:15:52.157Z,97.68
2016-04-24T01:16:02.157Z,97.02
2016-04-24T01:16:12.172Z,97.59
2016-04-24T01:16:22.422Z,97.68
2016-04-24T01:16:32.174Z,97.59
2016-04-24T01:16:42.174Z,97.59
2016-04-24T01:16:52.190Z,97.4
2016-04-24T01:17:02.190Z,97.59
2016-04-24T01:17:12.190Z,97.97
2016-04-24T01:17:22.190Z,98.16
2016-04-24T01:17:32.210Z,97.87
2016-04-24T01:17:42.210Z,97.87
2016-04-24T01:17:52.210Z,97.68
2016-04-24T01:18:02.506Z,97.49
2016-04-24T01:18:12.397Z,97.49
2016-04-24T01:18:22.522Z,97.73
2016-04-24T01:18:32.227Z,97.78
2016-04-24T01:18:42.227Z,98.54
2016-04-24T01:18:52.290Z,98.16
2016-04-24T01:19:02.383Z,98.25
2016-04-24T01:19:12.305Z,98.11
2016-04-24T01:19:22.305Z,98.11
2016-04-24T01:19:32.308Z,98.06
2016-04-24T01:19:42.340Z,98.16
2016-04-24T01:19:52.324Z,97.82
2016-04-24T01:20:02.308Z,98.01
2016-04-24T01:20:12.371Z,97.73
2016-04-24T01:20:22.324Z,98.3
2016-04-24T01:20:32.327Z,98.3
2016-04-24T01:20:42.311Z,98.49
2016-04-24T01:20:52.343Z,98.58
2016-04-24T01:21:02.343Z,98.63
2016-04-24T01:21:12.358Z,98.2
2016-04-24T01:21:22.655Z,98.3
2016-04-24T01:21:32.360Z,98.68
2016-04-24T01:21:42.423Z,98.49
2016-04-24T01:21:52.360Z,98.68
2016-04-24T01:22:02.360Z,98.68
2016-04-24T01:22:12.391Z,98.58
2016-04-24T01:22:22.360Z,98.49
2016-04-24T01:22:33.019Z,99.15
2016-04-24T01:22:42.379Z,98.86
2016-04-24T01:22:53.068Z,98.96
2016-04-24T01:23:03.100Z,99.15
2016-04-24T01:23:12.396Z,99.05
2016-04-24T01:23:22.412Z,98.96
2016-04-24T01:23:32.367Z,98.96
2016-04-24T01:23:42.367Z,99.43
2016-04-24T01:23:52.367Z,99.24
2016-04-24T01:24:02.367Z,99.15
2016-04-24T01:24:12.383Z,99.24
2016-04-24T01:24:22.383Z,99.15
2016-04-24T01:24:32.386Z,98.77
2016-04-24T01:24:42.386Z,98.86
2016-04-24T01:24:52.401Z,99.05
2016-04-24T01:25:02.401Z,99.71
2016-04-24T01:25:12.401Z,99.33
2016-04-24T01:25:22.401Z,99.62
2016-04-24T01:25:32.420Z,99.62
2016-04-24T01:25:42.420Z,99.81
2016-04-24T01:25:52.420Z,99.81
2016-04-24T01:26:02.420Z,99.81
2016-04-24T01:26:12.436Z,99.81
2016-04-24T01:26:22.436Z,99.43
2016-04-24T01:26:34.422Z,99.62
2016-04-24T01:26:42.438Z,99.43
2016-04-24T01:26:52.453Z,99.62
2016-04-24T01:27:02.453Z,99.99
2016-04-24T01:27:12.453Z,99.71
2016-04-24T01:27:22.453Z,99.99
2016-04-24T01:27:32.457Z,99.9
2016-04-24T01:27:42.473Z,99.81
2016-04-24T01:27:52.473Z,99.99
2016-04-24T01:28:02.473Z,99.99
2016-04-24T01:28:12.489Z,99.9
2016-04-24T01:28:22.489Z,99.9
2016-04-24T01:28:32.491Z,99.81
2016-04-24T01:28:42.491Z,99.9
2016-04-24T01:28:52.506Z,99.99
2016-04-24T01:29:02.506Z,99.99
2016-04-24T01:29:12.506Z,99.99
2016-04-24T01:29:22.506Z,99.99
2016-04-24T01:29:32.525Z,99.99
2016-04-24T01:29:42.525Z,99.99
2016-04-24T01:29:52.525Z,99.99
2016-04-24T01:30:02.540Z,99.99
2016-04-24T01:30:12.587Z,99.99
2016-04-24T01:30:22.540Z,99.99
2016-04-24T01:30:32.543Z,99.99
2016-04-24T01:30:42.543Z,99.99
2016-04-24T01:30:52.559Z,99.99
2016-04-24T01:31:02.559Z,99.99
2016-04-24T01:31:12.559Z,99.99
2016-04-24T01:31:23.965Z,99.99
2016-04-24T01:31:32.577Z,99.99
2016-04-24T01:31:42.577Z,99.99
2016-04-24T01:31:52.577Z,99.99
2016-04-24T01:32:02.577Z,99.99
2016-04-24T01:32:12.592Z,99.99
2016-04-24T01:32:22.592Z,99.99
2016-04-24T01:32:32.595Z,99.99
2016-04-24T01:32:42.595Z,99.99
2016-04-24T01:32:52.611Z,99.99
2016-04-24T01:33:02.611Z,99.99
2016-04-24T01:33:12.611Z,99.99
2016-04-24T01:33:22.611Z,99.99
2016-04-24T01:33:32.629Z,99.99
2016-04-24T01:33:42.629Z,99.99
2016-04-24T01:33:52.629Z,99.99
2016-04-24T01:34:02.691Z,99.99
2016-04-24T01:34:12.644Z,99.99
2016-04-24T01:34:22.644Z,99.99
2016-04-24T01:34:32.647Z,99.99
2016-04-24T01:34:42.647Z,99.99
2016-04-24T01:34:52.663Z,99.99
2016-04-24T01:35:02.663Z,99.99
2016-04-24T01:35:12.663Z,99.99
2016-04-24T01:35:22.663Z,99.99
2016-04-24T01:35:32.681Z,99.99
2016-04-24T01:35:42.681Z,99.99
2016-04-24T01:35:52.681Z,99.99
2016-04-24T01:36:02.681Z,99.99
2016-04-24T01:36:12.697Z,99.99
2016-04-24T01:36:22.697Z,99.99
2016-04-24T01:36:33.341Z,99.99
2016-04-24T01:36:42.700Z,99.99
2016-04-24T01:36:52.716Z,99.99
2016-04-24T01:37:02.716Z,99.99
2016-04-24T01:37:13.247Z,99.99
2016-04-24T01:37:22.716Z,99.99
2016-04-24T01:37:32.733Z,99.99
2016-04-24T01:37:43.077Z,99.99
2016-04-24T01:37:52.733Z,99.99
2016-04-24T01:38:02.733Z,99.99
2016-04-24T01:38:12.749Z,99.99
2016-04-24T01:38:22.749Z,99.99
2016-04-24T01:38:32.752Z,99.99
2016-04-24T01:38:42.752Z,99.99
2016-04-24T01:38:52.768Z,99.99
2016-04-24T01:39:02.768Z,99.99
2016-04-24T01:39:12.768Z,99.99
2016-04-24T01:39:22.783Z,99.99
2016-04-24T01:39:32.785Z,99.99
2016-04-24T01:39:42.785Z,99.99
2016-04-24T01:39:52.785Z,99.99
2016-04-24T01:40:02.785Z,99.99
2016-04-24T01:40:12.801Z,99.99
2016-04-24T01:40:22.801Z,99.99
2016-04-24T01:40:32.804Z,99.99
2016-04-24T01:40:42.819Z,99.99
2016-04-24T01:40:52.819Z,99.99
2016-04-24T01:41:02.819Z,99.99
2016-04-24T01:41:12.819Z,99.99
2016-04-24T01:41:22.819Z,99.99
2016-04-24T01:41:32.838Z,99.99
2016-04-24T01:41:42.854Z,99.99
2016-04-24T01:41:52.838Z,99.99
2016-04-24T01:42:02.838Z,99.99
2016-04-24T01:42:12.854Z,99.99
2016-04-24T01:42:22.854Z,99.99
2016-04-24T01:42:32.856Z,99.99
2016-04-24T01:42:42.856Z,99.99
2016-04-24T01:42:52.871Z,99.99
2016-04-24T01:43:02.871Z,99.99
2016-04-24T01:43:12.871Z,99.99
2016-04-24T01:43:22.871Z,99.99
2016-04-24T01:43:32.891Z,99.99
2016-04-24T01:43:42.907Z,99.99
2016-04-24T01:43:52.891Z,99.99
2016-04-24T01:44:02.891Z,99.99
2016-04-24T01:44:12.907Z,99.99
2016-04-24T01:44:22.907Z,99.99
2016-04-24T01:44:32.909Z,99.99
2016-04-24T01:44:42.924Z,99.99
2016-04-24T01:44:52.924Z,99.99
2016-04-24T01:45:02.924Z,99.99
2016-04-24T01:45:12.924Z,99.99
2016-04-24T01:45:22.924Z,99.99
2016-04-24T01:45:32.943Z,99.99
2016-04-24T01:45:42.943Z,99.99
2016-04-24T01:45:52.943Z,99.99
2016-04-24T01:46:02.943Z,99.99
2016-04-24T01:46:12.958Z,99.99
2016-04-24T01:46:22.958Z,99.99
2016-04-24T01:46:32.961Z,99.99
2016-04-24T01:46:42.961Z,99.99
2016-04-24T01:46:52.977Z,99.99
2016-04-24T01:47:02.977Z,99.99
2016-04-24T01:47:12.977Z,99.99
2016-04-24T01:47:22.977Z,99.99
2016-04-24T01:47:32.995Z,99.99
2016-04-24T01:47:43.010Z,99.99
2016-04-24T01:47:52.995Z,99.99
2016-04-24T01:48:02.995Z,99.99
2016-04-24T01:48:13.010Z,99.99
2016-04-24T01:48:23.010Z,99.99
2016-04-24T01:48:33.013Z,99.99
2016-04-24T01:48:43.013Z,99.99
2016-04-24T01:48:53.029Z,99.99
2016-04-24T01:49:03.029Z,99.99
2016-04-24T01:49:13.029Z,99.99
2016-04-24T01:49:23.029Z,99.99
2016-04-24T01:49:33.047Z,99.99
2016-04-24T01:49:43.047Z,99.99
2016-04-24T01:49:53.047Z,99.99
2016-04-24T01:50:03.047Z,99.99
2016-04-24T01:50:13.062Z,99.99
2016-04-24T01:50:23.062Z,99.99
2016-04-24T01:50:33.065Z,99.99
2016-04-24T01:50:43.487Z,99.99
2016-04-24T01:50:53.081Z,99.99
2016-04-24T01:51:03.081Z,99.99
2016-04-24T01:51:13.081Z,99.99
2016-04-24T01:51:23.096Z,99.99
2016-04-24T01:51:33.099Z,99.99
2016-04-24T01:51:43.099Z,99.99
2016-04-24T01:51:53.099Z,99.99
2016-04-24T01:52:03.099Z,99.99
2016-04-24T01:52:13.881Z,99.99
2016-04-24T01:52:23.115Z,99.99
2016-04-24T01:52:33.181Z,99.99
2016-04-24T01:52:43.477Z,99.99
2016-04-24T01:52:53.196Z,99.99
2016-04-24T01:53:03.493Z,99.99
2016-04-24T01:53:13.134Z,99.99
2016-04-24T01:53:23.134Z,99.99
2016-04-24T01:53:33.185Z,99.99
2016-04-24T01:53:43.185Z,99.99
2016-04-24T01:53:53.185Z,99.99
2016-04-24T01:54:03.185Z,99.99
2016-04-24T01:54:13.185Z,99.99
2016-04-24T01:54:23.201Z,99.99
2016-04-24T01:54:33.244Z,99.99
2016-04-24T01:54:43.244Z,99.99
2016-04-24T01:54:53.260Z,99.99
2016-04-24T01:55:03.260Z,99.99
2016-04-24T01:55:13.260Z,99.99
2016-04-24T01:55:23.260Z,99.99
2016-04-24T01:55:33.318Z,99.99
2016-04-24T01:55:43.318Z,99.99
2016-04-24T01:55:53.318Z,99.99
2016-04-24T01:56:03.318Z,99.99
2016-04-24T01:56:13.318Z,99.99
2016-04-24T01:56:23.334Z,99.99
2016-04-24T01:56:33.377Z,99.99
2016-04-24T01:56:43.377Z,99.99
2016-04-24T01:56:53.392Z,99.99
2016-04-24T01:57:03.392Z,99.99
2016-04-24T01:57:13.392Z,99.99
2016-04-24T01:57:23.392Z,99.99
2016-04-24T01:57:33.436Z,99.99
2016-04-24T01:57:43.452Z,99.99
2016-04-24T01:57:53.452Z,99.99
2016-04-24T01:58:03.452Z,99.99
2016-04-24T01:58:13.468Z,99.99
2016-04-24T01:58:23.468Z,99.99
2016-04-24T01:58:33.503Z,99.99
2016-04-24T01:58:43.488Z,99.99
2016-04-24T01:58:53.519Z,99.99
2016-04-24T01:59:03.503Z,99.99
2016-04-24T01:59:13.503Z,99.99
2016-04-24T01:59:23.503Z,99.99
2016-04-24T01:59:33.521Z,99.99
2016-04-24T01:59:43.537Z,99.99
2016-04-24T01:59:53.537Z,99.99
2016-04-24T02:00:03.537Z,99.99
2016-04-24T02:00:13.553Z,99.99
2016-04-24T02:00:23.553Z,99.99
2016-04-24T02:00:33.570Z,99.99
2016-04-24T02:00:43.570Z,99.99
2016-04-24T02:00:53.570Z,99.99
2016-04-24T02:01:03.585Z,99.99
2016-04-24T02:01:13.585Z,99.99
2016-04-24T02:01:23.585Z,99.99
2016-04-24T02:01:33.603Z,99.99
2016-04-24T02:01:43.619Z,99.99
2016-04-24T02:01:53.619Z,99.99
2016-04-24T02:02:03.619Z,99.99
2016-04-24T02:02:13.619Z,99.99
2016-04-24T02:02:23.634Z,99.99
2016-04-24T02:02:33.651Z,99.99
2016-04-24T02:02:43.651Z,99.99
2016-04-24T02:02:53.667Z,99.99
2016-04-24T02:03:03.667Z,99.99
2016-04-24T02:03:13.667Z,99.99
2016-04-24T02:03:23.667Z,99.99
2016-04-24T02:03:33.676Z,99.99
2016-04-24T02:03:43.723Z,99.99
2016-04-24T02:03:53.692Z,99.99
2016-04-24T02:04:03.692Z,99.99
2016-04-24T02:04:13.707Z,99.99
2016-04-24T02:04:23.707Z,99.99
2016-04-24T02:04:33.716Z,99.99
2016-04-24T02:04:43.779Z,99.99
2016-04-24T02:04:53.732Z,99.99
2016-04-24T02:05:03.732Z,99.99
2016-04-24T02:05:13.732Z,99.99
2016-04-24T02:05:23.732Z,99.99
2016-04-24T02:05:33.755Z,99.99
2016-04-24T02:05:43.755Z,99.99
2016-04-24T02:05:53.755Z,99.99
2016-04-24T02:06:03.755Z,99.99
2016-04-24T02:06:13.755Z,99.99
2016-04-24T02:06:23.770Z,99.99
2016-04-24T02:06:33.778Z,99.99
2016-04-24T02:06:43.778Z,99.99
2016-04-24T02:06:53.778Z,99.99
2016-04-24T02:07:03.794Z,99.99
2016-04-24T02:07:13.794Z,99.99
2016-04-24T02:07:23.825Z,99.99
2016-04-24T02:07:34.302Z,99.99
2016-04-24T02:07:44.161Z,99.99
2016-04-24T02:07:53.880Z,99.99
2016-04-24T02:08:04.021Z,99.99
2016-04-24T02:08:13.817Z,99.99
2016-04-24T02:08:23.833Z,99.99
2016-04-24T02:08:33.833Z,99.99
2016-04-24T02:08:43.838Z,99.99
2016-04-24T02:08:53.838Z,99.99
2016-04-24T02:09:03.854Z,99.99
2016-04-24T02:09:13.854Z,99.99
2016-04-24T02:09:23.854Z,99.99
2016-04-24T02:09:33.854Z,99.99
2016-04-24T02:09:43.874Z,99.99